Fraser, MI (48026)

9:05 PM EST on February 27, 2017 (GMT -0500)
WeatherSquirrel | | Change Station

Elev 617 ft 42.54 °N, 82.94 °W | Updated 23 seconds ago

Mostly Cloudy
Mostly Cloudy
43.2 °F
Feels Like 43 °F
N
2.0
Wind Variable Wind from South

Today
High -- | Low -- °F
--% Chance of Precip.
Yesterday
High -- | Low -- °F
Precip. -- in
Pressure 30.21 in
Visibility 10.0 miles
Clouds Few 4200 ft
Mostly Cloudy 5500 ft
Windchill 43 °F
Dew Point 34 °F
Humidity 71%
Rainfall 0.00 in
Snow Depth Not available.
7:10 AM 6:19 PM
Waxing Crescent, 3% visible
METAR KMTC 280158Z 17008KT 10SM FEW042 BKN055 03/02 A3018 RMK AO2A SLP229 T00320019
Pressure 30.21 in
Visibility 10.0 miles
Clouds Few 4200 ft
Mostly Cloudy 5500 ft
Windchill 43 °F
Dew Point 34 °F
Humidity 71%
Rainfall 0.00 in
Snow Depth Not available.
7:10 AM 6:19 PM
Waxing Crescent, 3% visible
METAR KMTC 280158Z 17008KT 10SM FEW042 BKN055 03/02 A3018 RMK AO2A SLP229 T00320019

Get Your Daily Forecast Email!

Thanks for signing up!

Be on the lookout for a verification email in your inbox.

You'll start receiving the daily forecast at 8 AM.

×

10-Day Weather Forecast

Almanac

Astronomy

Feb. 27, 2017 Rise Set
Actual Time
Civil Twilight
Nautical Twilight
Astronomical Twilight
Moon
Length of Visible Light
Length of Day
Tomorrow will be .
, % of the Moon is Illuminated

Today's Extremes

State Highs State Lows

Community

WunderPhotos

Upload Photos

1,962,540 photos uploaded!

WunderBlog® & News

Nearby

Air Quality

  Air Quality AQ Index Pollutant
Not available.

Snow Depth

Station Depth Elevation

Earthquake Activity

City Distance Mag. Time & Date
Minimum magnitude displayed is 2.5.

Coastal Water Temperatures

Place Temperature

Stations

Nearby Weather Stations

Station Location Temp. Windchill Dew Point Humidity Wind Precip. Elev Updated Type
                   

Watches & Warnings

There are currently no watches in effect.